Oozu Maru — JD4106 — position and weather

sailwx.info

Track history (hours):
 
Tides and Currents Weather Stations Pressure Air Temp Water Temp Dewpoint Dewpoint Depression Visibility Wind Speed Wind Dir Waves Ship Positions

Oozu Maru

Last reported at 2018-Jun-23 08:23 UTC. Time now 2018-Jun-25 13:46 UTC.
Position N 35°11' E 139°45'.

Length 90 m; draft 5.7 m.

Type: Tanker. MMSI: 431008812.

Date/timePositionNaut miles runAvg speedWind from/ knotsBaromVisibWave heightAir tempDewpointWater temp
2018-Jun-23 08:23N 35°11' E 139°45'511.9
2018-Jun-23 08:00N 35°16' E 139°46'612.9
2018-Jun-23 07:31N 35°22' E 139°42'613.0
2018-Jun-23 07:01N 35°27' E 139°47'13 1.0
2018-Jun-22 18:46N 35°33' E 140°01'311.0
2018-Jun-22 18:29N 35°32' E 139°58'714.1
2018-Jun-22 18:00N 35°28' E 139°51'713.3
2018-Jun-22 17:31N 35°23' E 139°46'611.5
2018-Jun-22 17:00N 35°17' E 139°45'612.0
2018-Jun-22 16:30N 35°11' E 139°47'813.9
2018-Jun-22 15:58N 35°05' E 139°42'  
2018-Jun-18 12:34N 33°49' E 135°03'113.3
2018-Jun-18 12:29N 33°50' E 135°03'612.4
2018-Jun-18 12:00N 33°56' E 135°00'713.2
2018-Jun-18 11:30N 34°02' E 134°59'613.3
2018-Jun-18 11:01N 34°09' E 134°59'815.2
2018-Jun-18 10:30N 34°17' E 134°59'713.2
2018-Jun-18 10:00N 34°23' E 135°02'815.1
2018-Jun-18 09:30N 34°27' E 135°09'714.7
2018-Jun-18 09:00N 34°32' E 135°16'713.5
2018-Jun-18 08:30N 34°36' E 135°22'3 6.2
2018-Jun-18 08:00N 34°34' E 135°26'0 0.0
2018-Jun-17 22:56N 34°34' E 135°26'1 2.4
2018-Jun-17 22:29N 34°35' E 135°25'2 3.5
2018-Jun-17 22:00N 34°36' E 135°23'0 0.1
2018-Jun-17 21:08N 34°35' E 135°23'0 0.0
2018-Jun-17 20:56N 34°35' E 135°23'0 0.0
2018-Jun-17 19:44N 34°35' E 135°23'0 0.0
2018-Jun-17 19:26N 34°35' E 135°23'0 0.1
2018-Jun-17 18:56N 34°35' E 135°23'0 0.0
2018-Jun-17 18:26N 34°35' E 135°23'0 0.1
2018-Jun-17 17:50N 34°35' E 135°23'0 0.0
2018-Jun-17 17:23N 34°35' E 135°23'0 0.0
2018-Jun-17 16:53N 34°35' E 135°23'0 0.0
2018-Jun-17 16:26N 34°35' E 135°23'0 0.0
2018-Jun-17 15:50N 34°35' E 135°23'0 0.0
2018-Jun-17 15:26N 34°35' E 135°23'0 0.0
2018-Jun-17 14:56N 34°35' E 135°23'0 0.0
2018-Jun-17 14:08N 34°35' E 135°23'0 0.0
2018-Jun-17 13:50N 34°35' E 135°23'0 0.1
2018-Jun-17 13:26N 34°35' E 135°23'0 0.1
2018-Jun-17 12:38N 34°35' E 135°23'0 0.0
2018-Jun-17 12:08N 34°35' E 135°23'0 0.0
2018-Jun-17 11:50N 34°35' E 135°23'0 0.0
2018-Jun-17 11:26N 34°35' E 135°23'0 0.0
2018-Jun-17 10:56N 34°35' E 135°23'0 0.0
2018-Jun-17 10:19N 34°35' E 135°23'0 0.0
2018-Jun-17 09:56N 34°35' E 135°23'0 0.0
2018-Jun-17 09:26N 34°35' E 135°23'0 0.0
2018-Jun-17 08:56N 34°35' E 135°23'0 0.0
2018-Jun-17 08:26N 34°35' E 135°23'0 0.0
2018-Jun-17 07:50N 34°35' E 135°23'0 0.2
2018-Jun-17 07:30N 34°36' E 135°23'3 5.4
2018-Jun-17 07:01N 34°34' E 135°20'714.5
2018-Jun-17 06:30N 34°30' E 135°14'713.7
2018-Jun-17 06:00N 34°25' E 135°08'713.5
2018-Jun-17 05:30N 34°20' E 135°02'611.9
2018-Jun-17 05:00N 34°14' E 134°59'713.8
2018-Jun-17 04:31N 34°08' E 134°59'714.5
2018-Jun-17 04:01N 34°00' E 134°59'714.2
2018-Jun-17 03:30N 33°53' E 134°60'714.2
2018-Jun-17 02:59N 33°48' E 135°06'24012.3
2018-Jun-16 07:31N 35°06' E 139°41'714.8
2018-Jun-16 07:04N 35°11' E 139°46'113.6
2018-Jun-16 06:59N 35°12' E 139°46'611.8
2018-Jun-16 06:31N 35°18' E 139°44'612.7
2018-Jun-16 06:00N 35°24' E 139°43'714.5
2018-Jun-16 05:30N 35°29' E 139°50'11 1.7
2018-Jun-15 23:05N 35°34' E 140°02'0 1.4
2018-Jun-15 22:59N 35°33' E 140°02'3 5.3
2018-Jun-15 22:28N 35°32' E 139°59'3 6.6
2018-Jun-15 22:00N 35°30' E 139°56'2 3.9
2018-Jun-15 21:29N 35°29' E 139°54'0 0.0
2018-Jun-15 20:53N 35°28' E 139°54'0 0.0
2018-Jun-15 20:29N 35°28' E 139°54'0 0.0
2018-Jun-15 19:59N 35°28' E 139°54'0 0.0
2018-Jun-15 19:23N 35°28' E 139°54'0 0.0
2018-Jun-15 18:59N 35°28' E 139°54'0 0.0
2018-Jun-15 18:29N 35°28' E 139°54'0 0.0
2018-Jun-15 17:44N 35°28' E 139°54'0 0.0
2018-Jun-15 17:05N 35°28' E 139°54'0 0.0
2018-Jun-15 16:35N 35°28' E 139°54'0 0.0
2018-Jun-15 16:29N 35°28' E 139°54'1 2.6
2018-Jun-15 15:59N 35°29' E 139°53'612.1
2018-Jun-15 15:31N 35°25' E 139°47'612.6
2018-Jun-15 15:00N 35°19' E 139°44'612.0
2018-Jun-15 14:30N 35°13' E 139°47'24512.0
2018-Jun-14 18:08N 33°44' E 135°10'315.1
2018-Jun-14 17:57N 33°45' E 135°07'715.0
2018-Jun-14 17:30N 33°50' E 135°02'714.8
2018-Jun-14 17:00N 33°56' E 134°56'714.6
2018-Jun-14 16:30N 34°02' E 134°51'814.5
2018-Jun-14 15:57N 34°08' E 134°45'715.1
2018-Jun-14 15:30N 34°13' E 134°40'713.9
2018-Jun-14 14:59N 34°17' E 134°33'713.7
2018-Jun-14 14:30N 34°20' E 134°25'  
Track history (hours):
 
Tides and Currents Weather Stations Pressure Air Temp Water Temp Dewpoint Dewpoint Depression Visibility Wind Speed Wind Dir Waves Ship Positions

Oozu Maru

Last reported at 2018-Jun-23 08:23 UTC. Time now 2018-Jun-25 13:46 UTC.
Position N 35°11' E 139°45'.

Length 90 m; draft 5.7 m.

Type: Tanker. MMSI: 431008812.

Date/timePositionNaut miles runAvg speedWind from/ knotsBaromVisibWave heightAir tempDewpointWater temp
2018-Jun-23 08:23N 35°11' E 139°45'511.9
2018-Jun-23 08:00N 35°16' E 139°46'612.9
2018-Jun-23 07:31N 35°22' E 139°42'613.0
2018-Jun-23 07:01N 35°27' E 139°47'13 1.0
2018-Jun-22 18:46N 35°33' E 140°01'311.0
2018-Jun-22 18:29N 35°32' E 139°58'714.1
2018-Jun-22 18:00N 35°28' E 139°51'713.3
2018-Jun-22 17:31N 35°23' E 139°46'611.5
2018-Jun-22 17:00N 35°17' E 139°45'612.0
2018-Jun-22 16:30N 35°11' E 139°47'813.9
2018-Jun-22 15:58N 35°05' E 139°42'  
2018-Jun-18 12:34N 33°49' E 135°03'113.3
2018-Jun-18 12:29N 33°50' E 135°03'612.4
2018-Jun-18 12:00N 33°56' E 135°00'713.2
2018-Jun-18 11:30N 34°02' E 134°59'613.3
2018-Jun-18 11:01N 34°09' E 134°59'815.2
2018-Jun-18 10:30N 34°17' E 134°59'713.2
2018-Jun-18 10:00N 34°23' E 135°02'815.1
2018-Jun-18 09:30N 34°27' E 135°09'714.7
2018-Jun-18 09:00N 34°32' E 135°16'713.5
2018-Jun-18 08:30N 34°36' E 135°22'3 6.2
2018-Jun-18 08:00N 34°34' E 135°26'0 0.0
2018-Jun-17 22:56N 34°34' E 135°26'1 2.4
2018-Jun-17 22:29N 34°35' E 135°25'2 3.5
2018-Jun-17 22:00N 34°36' E 135°23'0 0.1
2018-Jun-17 21:08N 34°35' E 135°23'0 0.0
2018-Jun-17 20:56N 34°35' E 135°23'0 0.0
2018-Jun-17 19:44N 34°35' E 135°23'0 0.0
2018-Jun-17 19:26N 34°35' E 135°23'0 0.1
2018-Jun-17 18:56N 34°35' E 135°23'0 0.0
2018-Jun-17 18:26N 34°35' E 135°23'0 0.1
2018-Jun-17 17:50N 34°35' E 135°23'0 0.0
2018-Jun-17 17:23N 34°35' E 135°23'0 0.0
2018-Jun-17 16:53N 34°35' E 135°23'0 0.0
2018-Jun-17 16:26N 34°35' E 135°23'0 0.0
2018-Jun-17 15:50N 34°35' E 135°23'0 0.0
2018-Jun-17 15:26N 34°35' E 135°23'0 0.0
2018-Jun-17 14:56N 34°35' E 135°23'0 0.0
2018-Jun-17 14:08N 34°35' E 135°23'0 0.0
2018-Jun-17 13:50N 34°35' E 135°23'0 0.1
2018-Jun-17 13:26N 34°35' E 135°23'0 0.1
2018-Jun-17 12:38N 34°35' E 135°23'0 0.0
2018-Jun-17 12:08N 34°35' E 135°23'0 0.0
2018-Jun-17 11:50N 34°35' E 135°23'0 0.0
2018-Jun-17 11:26N 34°35' E 135°23'0 0.0
2018-Jun-17 10:56N 34°35' E 135°23'0 0.0
2018-Jun-17 10:19N 34°35' E 135°23'0 0.0
2018-Jun-17 09:56N 34°35' E 135°23'0 0.0
2018-Jun-17 09:26N 34°35' E 135°23'0 0.0
2018-Jun-17 08:56N 34°35' E 135°23'0 0.0
2018-Jun-17 08:26N 34°35' E 135°23'0 0.0
2018-Jun-17 07:50N 34°35' E 135°23'0 0.2
2018-Jun-17 07:30N 34°36' E 135°23'3 5.4
2018-Jun-17 07:01N 34°34' E 135°20'714.5
2018-Jun-17 06:30N 34°30' E 135°14'713.7
2018-Jun-17 06:00N 34°25' E 135°08'713.5
2018-Jun-17 05:30N 34°20' E 135°02'611.9
2018-Jun-17 05:00N 34°14' E 134°59'713.8
2018-Jun-17 04:31N 34°08' E 134°59'714.5
2018-Jun-17 04:01N 34°00' E 134°59'714.2
2018-Jun-17 03:30N 33°53' E 134°60'714.2
2018-Jun-17 02:59N 33°48' E 135°06'24012.3
2018-Jun-16 07:31N 35°06' E 139°41'714.8
2018-Jun-16 07:04N 35°11' E 139°46'113.6
2018-Jun-16 06:59N 35°12' E 139°46'611.8
2018-Jun-16 06:31N 35°18' E 139°44'612.7
2018-Jun-16 06:00N 35°24' E 139°43'714.5
2018-Jun-16 05:30N 35°29' E 139°50'11 1.7
2018-Jun-15 23:05N 35°34' E 140°02'0 1.4
2018-Jun-15 22:59N 35°33' E 140°02'3 5.3
2018-Jun-15 22:28N 35°32' E 139°59'3 6.6
2018-Jun-15 22:00N 35°30' E 139°56'2 3.9
2018-Jun-15 21:29N 35°29' E 139°54'0 0.0
2018-Jun-15 20:53N 35°28' E 139°54'0 0.0
2018-Jun-15 20:29N 35°28' E 139°54'0 0.0
2018-Jun-15 19:59N 35°28' E 139°54'0 0.0
2018-Jun-15 19:23N 35°28' E 139°54'0 0.0
2018-Jun-15 18:59N 35°28' E 139°54'0 0.0
2018-Jun-15 18:29N 35°28' E 139°54'0 0.0
2018-Jun-15 17:44N 35°28' E 139°54'0 0.0
2018-Jun-15 17:05N 35°28' E 139°54'0 0.0
2018-Jun-15 16:35N 35°28' E 139°54'0 0.0
2018-Jun-15 16:29N 35°28' E 139°54'1 2.6
2018-Jun-15 15:59N 35°29' E 139°53'612.1
2018-Jun-15 15:31N 35°25' E 139°47'612.6
2018-Jun-15 15:00N 35°19' E 139°44'612.0
2018-Jun-15 14:30N 35°13' E 139°47'24512.0
2018-Jun-14 18:08N 33°44' E 135°10'315.1
2018-Jun-14 17:57N 33°45' E 135°07'715.0
2018-Jun-14 17:30N 33°50' E 135°02'714.8
2018-Jun-14 17:00N 33°56' E 134°56'714.6
2018-Jun-14 16:30N 34°02' E 134°51'814.5
2018-Jun-14 15:57N 34°08' E 134°45'715.1
2018-Jun-14 15:30N 34°13' E 134°40'713.9
2018-Jun-14 14:59N 34°17' E 134°33'713.7
2018-Jun-14 14:30N 34°20' E 134°25'  

Dump ship's entire track history